Meteo Giornale » Osservazioni meteo Italia » Genova-Sestri

ore: 06:20 - Osservazioni Meteo Genova-Sestri
Lat. 44° 25' N Lon. 8° 51' E Alt. 2 metri s.l.m.

nuvoloso Europe/Rome

10 °C

Nuvoloso

Temp. 24 Ore

8 °C

15 °C

Nord-Est

13 Km/h

Dew point -6 °C

Umidità 31 %

Visibilità  10 Km

Il sole sorge alle ore 07:50

Il sole tramonta alle ore 16:46

Data e Ora Cielo e Fenomeni T °C DP °C Um. % Pres. hPa Vis. km Vento km/h
Oggi h: 06:20 nuvoloso Nuvoloso 10 -6 31 1018 10 NE 13
Oggi h: 05:50 nuvoloso Nuvoloso 10 -6 31 1018 10 NE 14.8
Oggi h: 05:20 nuvoloso Nuvoloso 10 -6 31 1018 10 NE 13
Oggi h: 04:50 nuvoloso Nuvoloso 10 -6 31 1018 10 NE 14.8
Oggi h: 04:20 nuvoloso Nuvoloso 10 -6 31 1018 10 NE 13
Oggi h: 03:50 nuvoloso Nuvoloso 10 -5 34 1018 10 NE 16.7
Oggi h: 03:20 poco_nuvoloso Poco Nuvoloso 10 -6 31 1018 10 NE 14.8
Oggi h: 02:50 poco_nuvoloso Poco Nuvoloso 10 -6 31 1018 10 NE 14.8
Oggi h: 02:20 poco_nuvoloso Poco Nuvoloso 10 -7 29 1018 10 NE 14.8
Oggi h: 01:50 poco_nuvoloso Poco Nuvoloso 10 -8 27 1018 10 NE 14.8
Oggi h: 01:20 poco_nuvoloso Poco Nuvoloso 10 -7 29 1019 10 NE 11.1
Oggi h: 00:50 sereno Sereno 10 -7 29 1019 10 N/NE 11.1
Oggi h: 00:20 sereno Sereno 10 -8 27 1019 10 N/NE 11.1
Ieri h: 23:50 sereno Sereno 10 -9 25 1019 10 N/NE 11.1
Ieri h: 23:20 sereno Sereno 10 -10 23 1018 10 NE 14.8
Ieri h: 22:50 sereno Sereno 10 -10 23 1018 10 NE 18.5
Ieri h: 22:20 sereno Sereno 10 -10 23 1019 10 NE 16.7
Ieri h: 21:50 sereno Sereno 10 -10 23 1018 10 NE 13
Ieri h: 21:20 sereno Sereno 10 -11 21 1018 10 NE 14.8
Ieri h: 20:50 sereno Sereno 10 -12 19 1018 10 NE 9.3
Ieri h: 20:20 sereno Sereno 10 -11 21 1018 10 E/NE 9.3
Ieri h: 19:50 sereno Sereno 9 -12 21 1018 10 E 7.4
Ieri h: 19:20 sereno Sereno 9 -10 24 1018 10 E 11.1
Ieri h: 18:50 sereno Sereno 11 -10 21 1018 10 E/NE 18.5
Ieri h: 18:20 sereno Sereno 12 -12 17 1017 10 E/NE 13
Ieri h: 17:50 poco_nuvoloso Poco Nuvoloso 12 -10 20 1017 10 NE 14.8
Ieri h: 17:20 poco_nuvoloso Poco Nuvoloso 12 -10 20 1017 10 NE 11.1
Ieri h: 16:50 poco_nuvoloso Poco Nuvoloso 13 -10 19 1017 10 E/NE 9.3
Ieri h: 16:20 sereno Sereno 13 -9 20 1017 10 N/NE 11.1
Ieri h: 15:50 sereno Sereno 13 -9 20 1017 10 N 9.3
Ieri h: 15:20 sereno Sereno 14 -7 22 1017 10 N 9.3
Ieri h: 14:50 sereno Sereno 14 -9 19 1017 10 N 13
Ieri h: 14:20 sereno Sereno 15 -8 19 1017 10 N 13
Ieri h: 13:50 sereno Sereno 15 -9 18 1017 10 N 9.3
Ieri h: 13:20 sereno Sereno 15 -10 16 1017 10 N/NO 14.8
Ieri h: 12:50 sereno Sereno 15 -9 18 1018 10 N 9.3
Ieri h: 12:20 sereno Sereno 15 -10 16 1018 10 N 13
Ieri h: 11:50 sereno Sereno 14 -10 17 1018 10 N/NE 14.8
Ieri h: 11:20 sereno Sereno 14 -11 16 1019 10 N/NE 14.8
Ieri h: 10:50 sereno Sereno 14 -7 22 1019 10 N 5.5
Ieri h: 10:20 sereno Sereno 13 -6 26 1019 10 N 3.7
Ieri h: 09:50 sereno Sereno 12 -4 32 1019 10 N 3.7
Ieri h: 09:20 sereno Sereno 11 -5 32 1019 10 E/NE 7.4
Ieri h: 08:50 sereno Sereno 9 -5 36 1019 10 N 3.7
Ieri h: 08:20 sereno Sereno 9 -5 36 1018 10 N 5.5
Ieri h: 07:50 sereno Sereno 9 -6 33 1018 10 E/NE 7.4
Ieri h: 07:20 sereno Sereno 9 -5 36 1018 10 N 5.5
Ieri h: 06:50 sereno Sereno 9 -6 33 1017 10 E/NE 11.1
Ieri h: 06:20 sereno Sereno 8 -4 42 1017 10 N 1.8